NCAR-RAP Real-Time Weather Data

Output produced by METARs form (12 August 2020  18:37 UTC)
found at http://weather.rap.ucar.edu/surface/
 
KRNO 121755Z VRB03KT 10SM CLR 27/M02 A3010 RMK AO2 SLP134 T02721017 10272 20128 58001
KRNO 121655Z 10003KT 10SM CLR 24/02 A3010 RMK AO2 SLP137 T02390022
KRNO 121555Z 00000KT 10SM CLR 20/03 A3010 RMK AO2 SLP143 T02000028
KRNO 121455Z 00000KT 10SM CLR 17/03 A3010 RMK AO2 SLP142 T01720033 51008
KRNO 121355Z 00000KT 10SM CLR 14/04 A3009 RMK AO2 SLP139 T01390039
KRNO 121255Z 13004KT 10SM CLR 14/04 A3008 RMK AO2 SLP135 T01390044
KRNO 121155Z 00000KT 10SM CLR 16/02 A3007 RMK AO2 SLP130 T01560022 10217 20139 56002
KRNO 121055Z 00000KT 10SM CLR 16/05 A3008 RMK AO2 SLP131 T01610050
KRNO 120955Z 00000KT 10SM CLR 17/05 A3007 RMK AO2 SLP127 T01720050
KRNO 120855Z 00000KT 10SM CLR 18/05 A3008 RMK AO2 SLP128 T01780050 58001
KRNO 120755Z 28004KT 10SM CLR 19/06 A3009 RMK AO2 SLP128 T01940056 403330194
KRNO 120655Z 21003KT 10SM CLR 21/06 A3009 RMK AO2 SLP125 T02060061
KRNO 120555Z 14004KT 10SM CLR 21/06 A3008 RMK AO2 SLP126 T02110056 10311 20211 51016
KRNO 120455Z 03012KT 10SM FEW140 FEW220 23/05 A3008 RMK AO2 SLP125 T02330050
KRNO 120355Z 36012KT 10SM FEW120 FEW160 SCT230 24/06 A3006 RMK AO2 SLP120 T02440061
KRNO 120255Z 01013KT 10SM FEW130 SCT160 SCT250 26/05 A3003 RMK AO2 SLP111 VIRGA DSNT NE THRU E T02610050 53010
KRNO 120155Z 32010KT 10SM FEW110 SCT150 SCT200 BKN250 30/03 A3000 RMK AO2 SLP098 VIRGA E CB DSNT SE T03000028
KRNO 120055Z 01007KT 10SM FEW110 SCT150 SCT180 BKN240 30/03 A3000 RMK AO2 SLP095 VIRGA E T03000028
KRNO 112355Z 09010KT 10SM SCT130 SCT160 BKN240 31/03 A3000 RMK AO2 LTG DSNT N SLP093 60000 T03060033 10333 20278 55000
KRNO 112255Z 08014G23KT 10SM SCT120CB BKN150 BKN220 29/04 A2999 RMK AO2 PK WND 11027/2207 LTG DSNT N AND NE SLP090 VIRGA E CB E MOV NE TCU DSNT N T02940044
KRNO 112155Z 09019G28KT 10SM BKN120 BKN190 BKN250 30/03 A3000 RMK AO2 PK WND 10028/2153 LTG DSNT NE SLP094 VIRGA E T03000033
KRNO 112055Z 02010G19KT 10SM BKN110 BKN190 BKN250 31/02 A3000 RMK AO2 PK WND 26030/2018 WSHFT 2014 RAB00E28 TSE24 SLP092 CB DSNT N AND E THRU SE MOV N P0000 60000 T03060017 58015 $
KRNO 112027Z 02017G30KT 10SM -RA FEW085 BKN110 BKN190 29/03 A3001 RMK AO2 PK WND 26030/2018 WSHFT 1954 LTG DSNT N AND SE RAB00 TSE24 TS MOVD N CB DSNT N AND E THRU SE MOV N P0000 T02890033 $
KRNO 112009Z 20010G24KT 160V230 10SM -TSRA BKN110CB BKN190 28/07 A3002 RMK AO2 WSHFT 1954 LTG DSNT SE RAB00 OCNL LTGIC OHD TS OHD MOV NE CB DSNT N AND SE P0000 T02780072
KRNO 111955Z 27010KT 10SM TS BKN110CB BKN190 BKN250 31/01 A3002 RMK AO2 LTG DSNT NW TSB29 SLP099 FRQ LTGIC OHD-SW TS OHD-SW MOV NE CB DSNT SE AND NW SH VC SW T03110011
KRNO 111931Z 24004KT 10SM TS BKN110CB BKN190 BKN250 31/03 A3002 RMK AO2 TSB29 OCNL LTGIC SW TS SW STNRY VIRGA CB DSNT SE AND NW T03110033
KRNO 111855Z 07003KT 10SM SCT110TCU SCT190 32/04 A3003 RMK AO2 SLP102 TCU SW AND W T03220039
KRNO 111755Z VRB03KT 10SM SCT110 SCT240 31/05 A3005 RMK AO2 SLP108 T03060050 10306 20211 58002
KRNO 111655Z 00000KT 10SM SCT120 SCT190 28/04 A3005 RMK AO2 SLP112 ACC E AND W T02780044
KRNO 111555Z 00000KT 10SM BKN130 BKN190 24/05 A3007 RMK AO2 SLP120 ACC ALQDS T02390050
KRNO 111455Z 00000KT 10SM BKN150 BKN190 22/05 A3005 RMK AO2 SLP117 VIRGA SE ACC ALQDS T02220050 51008
KRNO 111355Z 00000KT 10SM BKN150 22/04 A3005 RMK AO2 SLP115 VIRGA E AND S T02170044
KRNO 111255Z 28004KT 10SM FEW100 BKN150 23/04 A3004 RMK AO2 SLP109 T02280039
KRNO 111155Z 00000KT 10SM FEW100 BKN150 23/04 A3003 RMK AO2 SLP102 T02330039 10267 20233 55006
KRNO 111055Z VRB03KT 10SM FEW100 BKN150 24/04 A3002 RMK AO2 SLP098 T02440039
KRNO 110955Z 06009KT 10SM FEW100 SCT130 BKN150 24/04 A3002 RMK AO2 SLP096 T02440044
KRNO 110855Z VRB05KT 10SM SCT130 SCT150 BKN180 25/04 A3005 RMK AO2 SLP106 T02500039 55000
KRNO 110755Z 14011KT 10SM SCT150 BKN180 24/04 A3004 RMK AO2 SLP105 T02390044 403561183
KRNO 110655Z 00000KT 10SM SCT150 BKN180 26/04 A3004 RMK AO2 SLP106 T02560039
KRNO 110555Z 25006KT 10SM FEW150 BKN180 26/03 A3005 RMK AO2 SLP109 60000 T02610033 10322 20261 50006
KRNO 110455Z 31007KT 10SM FEW140 BKN180 BKN210 27/03 A3007 RMK AO2 SLP118 T02720033
KRNO 110355Z 27017G22KT 10SM SCT130 BKN160 BKN200 28/03 A3003 RMK AO2 PK WND 28031/0305 SLP108 VIRGA NW T02780028
KRNO 110255Z 30011G20KT 10SM FEW100 BKN130 BKN160 BKN210 29/04 A3003 RMK AO2 PK WND 33030/0242 RAB29E51 SLP108 VIRGA ALQDS P0000 60000 T02890044 50006
KRNO 110155Z 05009KT 10SM FEW100 BKN130 BKN250 29/02 A3003 RMK AO2 PK WND 23029/0109 SLP115 VIRGA VC NE THRU SE AND DSNT W T02890017
KRNO 110055Z 25018G24KT 10SM FEW110 BKN140 BKN190 BKN250 31/00 A3001 RMK AO2 PK WND 28028/0016 SLP105 VIRGA ALQDS CB DSNT NW THRU N T03060000
KRNO 102355Z 27013G22KT 10SM SCT110 BKN180 BKN250 32/M01 A3001 RMK AO2 PK WND 27028/2336 LTG DSNT S AND SW SLP101 VIRGA ALQDS CB DSNT S THRU SW T03171006 10356 20289 55013
KRNO 102255Z 30013KT 10SM SCT110 BKN190 BKN250 34/M01 A3001 RMK AO2 LTG DSNT SW SLP097 VIRGA S AND DSNT SW THRU NW CB DSNT S AND SW T03391006
KRNO 102155Z 32005KT 10SM SCT110 SCT200 34/M01 A3002 RMK AO2 SLP099 CB DSNT S THRU W T03391006
KRNO 102055Z 00000KT 10SM FEW110 FEW200 33/M01 A3005 RMK AO2 SLP104 CB DSNT SW AND W T03331006 58021
KRNO 101955Z 34004KT 10SM FEW095 FEW120 33/M01 A3007 RMK AO2 SLP117 TCU DSNT S THRU SW T03331006
KRNO 101855Z VRB04KT 10SM FEW090 FEW120 31/M01 A3010 RMK AO2 SLP125 T03111006